NCAR-RAP Real-Time Weather Data

Output produced by METARs form (24 April 2018  16:13 UTC)
found at http://weather.rap.ucar.edu/surface/
 
RJTI 240700Z 18010KT 9999 -RA FEW020 SCT050 BKN120 19/16 Q1010
RJTI 240600Z 20011KT 170V240 9999 FEW020 SCT030 BKN050 20/15 Q1011
RJTI 240500Z 19009KT 9999 FEW020 SCT030 BKN120 19/16 Q1012
RJTI 240400Z 18009KT 160V220 9999 FEW020 BKN030 BKN080 20/16 Q1013
RJTI 240300Z 19010KT 080V220 9999 FEW020 SCT030 BKN140 20/16 Q1013
RJTI 240200Z 17007KT 140V240 9999 FEW020 BKN150 BKN/// 19/16 Q1014
RJTI 240100Z 13007KT 9999 FEW015 BKN150 BKN/// 19/16 Q1015
RJTI 240000Z 13005KT 8000 FEW015 SCT030 BKN150 18/15 Q1016
RJTI 232330Z 13005KT 7000 FEW010 SCT015 BKN100 18/16 Q1016
RJTI 230700Z 08010KT 9999 FEW015 BKN025 17/12 Q1020
RJTI 230600Z 10009KT 9999 FEW015 BKN025 17/12 Q1020
RJTI 230500Z 10009KT 070V180 9999 FEW015 BKN030 17/12 Q1020
RJTI 230400Z 08009KT 010V180 9999 FEW015 BKN030 17/12 Q1021
RJTI 230300Z 07010KT 9999 FEW010 BKN020 BKN030 17/12 Q1021
RJTI 230200Z 06011KT 030V100 8000 FEW010 SCT015 BKN030 17/12 Q1021
RJTI 230100Z 05010KT 020V100 8000 FEW010 BKN015 BKN030 16/12 Q1022
RJTI 230000Z 07010KT 8000 FEW015 BKN025 16/13 Q1022
RJTI 222330Z 06009KT 8000 FEW010 BKN015 BKN025 16/13 Q1022
RJTI 220700Z 19010KT 150V220 CAVOK 21/15 Q1015
RJTI 220600Z 19012KT 140V220 9999 FEW030 23/15 Q1015
RJTI 220500Z 19009KT 150V210 CAVOK 24/16 Q1016